Miami, Texas
Current Conditions -  °F | °C
As of 5:55 PM on Sunday 23 Nov 2014 (Local Time) from KHHF Reporting Station
Overcast Overcast  
Wind Chill: 43°   Ceiling: 7000
Heat Index: 46°   Visibility: 10mi
Dew Point: 32°   Wind: 7mph
Humidity: 58%   Direction: 310°NW
Pressure: 29.73"   Gusts: NA
Location:  35.69°N, 100.64°W
Report Text: KHHF 232355Z AUTO 31006KT 10SM BKN070 OVC090 08/00 A2973 RMK AO2 T00800002 10133 20076
Loading
Personal Weather Stations






























Interactive Weather Map New forecast layout! Learn more

10-Day Weather Forecast

Advertisements
Track Severe Weather on mobile